createdAt,value
2018-05-16T00:01:05.755Z,15.15
2018-05-16T00:03:33.303Z,15.25
2018-05-16T00:06:00.832Z,15.30
2018-05-16T00:08:28.336Z,15.19
2018-05-16T00:10:55.842Z,15.22
2018-05-16T00:13:23.347Z,15.24
2018-05-16T00:15:50.882Z,15.21
2018-05-16T00:18:18.390Z,15.18
2018-05-16T00:20:45.899Z,15.20
2018-05-16T00:23:13.720Z,15.15
2018-05-16T00:25:41.226Z,15.19
2018-05-16T00:28:08.740Z,15.20
2018-05-16T00:30:36.253Z,15.11
2018-05-16T00:33:03.750Z,15.31
2018-05-16T00:35:31.260Z,15.36
2018-05-16T00:37:58.770Z,15.23
2018-05-16T00:40:26.318Z,15.39
2018-05-16T00:42:53.819Z,15.42
2018-05-16T00:45:21.321Z,15.47
2018-05-16T00:47:48.820Z,15.31
2018-05-16T00:50:16.385Z,15.37
2018-05-16T00:52:43.978Z,15.45
2018-05-16T00:55:11.495Z,15.40
2018-05-16T00:57:38.994Z,15.36
2018-05-16T01:00:06.542Z,15.11
2018-05-16T01:02:34.142Z,15.21
2018-05-16T01:05:01.635Z,15.16
2018-05-16T01:07:29.127Z,15.13
2018-05-16T01:09:56.640Z,15.07
2018-05-16T01:12:24.135Z,15.07
2018-05-16T01:14:51.622Z,15.09
2018-05-16T01:17:19.121Z,15.06
2018-05-16T01:19:46.618Z,15.03
2018-05-16T01:22:14.119Z,14.84
2018-05-16T01:24:41.618Z,14.87
2018-05-16T01:27:09.116Z,14.89
2018-05-16T01:29:36.664Z,14.82
2018-05-16T01:32:04.192Z,14.65
2018-05-16T01:34:31.696Z,14.58
2018-05-16T01:36:59.237Z,14.43
2018-05-16T01:39:26.731Z,14.35
2018-05-16T01:41:54.236Z,14.09
2018-05-16T01:44:21.749Z,13.99
2018-05-16T01:46:49.258Z,13.88
2018-05-16T01:49:19.590Z,13.85
2018-05-16T01:51:47.081Z,13.79
2018-05-16T01:54:14.576Z,13.80
2018-05-16T01:56:42.072Z,13.83
2018-05-16T01:59:09.563Z,13.76
2018-05-16T02:01:37.054Z,13.66
2018-05-16T02:04:04.571Z,13.68
2018-05-16T02:06:32.115Z,13.53
2018-05-16T02:08:59.648Z,13.53
2018-05-16T02:11:27.144Z,13.51
2018-05-16T02:13:54.628Z,13.42
2018-05-16T02:16:22.127Z,13.38
2018-05-16T02:18:49.624Z,13.30
2018-05-16T02:21:17.116Z,13.31
2018-05-16T02:23:44.611Z,13.26
2018-05-16T02:26:12.108Z,13.23
2018-05-16T02:28:39.607Z,13.24
2018-05-16T02:31:07.190Z,13.21
2018-05-16T02:33:34.681Z,13.32
2018-05-16T02:36:02.184Z,13.40
2018-05-16T02:38:29.675Z,13.35
2018-05-16T02:40:57.188Z,13.17
2018-05-16T02:43:24.690Z,13.18
2018-05-16T02:45:52.200Z,13.21
2018-05-16T02:48:19.709Z,13.21
2018-05-16T02:50:47.224Z,13.18
2018-05-16T02:53:14.722Z,13.27
2018-05-16T02:55:42.223Z,13.33
2018-05-16T02:58:09.760Z,13.35
2018-05-16T03:00:37.318Z,13.44
2018-05-16T03:03:04.830Z,13.54
2018-05-16T03:05:32.339Z,13.63
2018-05-16T03:07:59.847Z,13.75
2018-05-16T03:10:27.408Z,13.78
2018-05-16T03:12:54.931Z,13.81
2018-05-16T03:15:22.454Z,13.89
2018-05-16T03:17:49.943Z,13.95
2018-05-16T03:20:17.493Z,14.07
2018-05-16T03:22:44.995Z,14.16
2018-05-16T03:25:12.495Z,14.10
2018-05-16T03:27:40.016Z,14.18
2018-05-16T03:30:07.590Z,14.13
2018-05-16T03:32:35.096Z,14.10
2018-05-16T03:35:02.659Z,14.16
2018-05-16T03:37:30.171Z,14.10
2018-05-16T03:39:57.669Z,14.10
2018-05-16T03:42:25.168Z,14.16
2018-05-16T03:44:52.676Z,14.03
2018-05-16T03:47:20.192Z,13.90
2018-05-16T03:49:47.740Z,13.81
2018-05-16T03:52:15.263Z,13.78
2018-05-16T03:54:42.774Z,13.76
2018-05-16T04:00:25.798Z,13.79
2018-05-16T04:03:05.310Z,13.90
2018-05-16T04:05:32.839Z,13.74
2018-05-16T04:08:00.357Z,13.60
2018-05-16T04:10:27.853Z,13.53
2018-05-16T04:12:55.354Z,13.43
2018-05-16T04:15:22.888Z,13.47
2018-05-16T04:17:50.419Z,13.49
2018-05-16T04:20:17.931Z,13.51
2018-05-16T04:22:45.428Z,13.51
2018-05-16T04:25:13.528Z,13.50
2018-05-16T04:27:41.032Z,13.42
2018-05-16T04:30:08.536Z,13.40
2018-05-16T04:32:36.105Z,13.35
2018-05-16T04:35:03.567Z,13.39
2018-05-16T04:37:31.070Z,13.39
2018-05-16T04:39:58.559Z,13.40
2018-05-16T04:42:26.083Z,13.47
2018-05-16T04:44:53.586Z,13.45
2018-05-16T04:47:21.126Z,13.47
2018-05-16T04:49:48.652Z,13.61
2018-05-16T04:52:16.149Z,13.65
2018-05-16T04:54:43.654Z,13.79
2018-05-16T04:57:11.147Z,13.81
2018-05-16T04:59:38.663Z,13.72
2018-05-16T05:02:06.159Z,13.66
2018-05-16T05:04:33.699Z,13.71
2018-05-16T05:07:01.197Z,13.71
2018-05-16T05:09:28.697Z,13.80
2018-05-16T05:11:56.203Z,13.82
2018-05-16T05:14:23.710Z,13.85
2018-05-16T05:16:51.225Z,13.96
2018-05-16T05:19:18.731Z,13.98
2018-05-16T05:21:46.227Z,14.06
2018-05-16T05:24:13.734Z,14.07
2018-05-16T05:26:41.224Z,14.17
2018-05-16T05:29:08.714Z,14.27
2018-05-16T05:31:36.214Z,14.34
2018-05-16T05:34:03.714Z,14.40
2018-05-16T05:36:31.242Z,14.49
2018-05-16T05:38:58.734Z,14.52
2018-05-16T05:41:26.300Z,14.54
2018-05-16T05:43:53.812Z,14.67
2018-05-16T05:46:21.315Z,14.81
2018-05-16T05:48:48.804Z,14.88
2018-05-16T05:51:16.304Z,15.03
2018-05-16T05:53:43.794Z,15.14
2018-05-16T05:56:11.289Z,15.29
2018-05-16T05:58:38.782Z,15.33
2018-05-16T06:01:06.280Z,15.37
2018-05-16T06:03:33.778Z,15.45
2018-05-16T06:06:01.271Z,15.49
2018-05-16T06:08:28.789Z,15.45
2018-05-16T06:10:56.294Z,15.60
2018-05-16T06:13:23.785Z,15.75
2018-05-16T06:15:51.284Z,15.76
2018-05-16T06:18:18.779Z,15.87
2018-05-16T06:20:46.286Z,16.00
2018-05-16T06:23:14.576Z,15.97
2018-05-16T06:25:42.159Z,16.00
2018-05-16T06:28:09.693Z,15.98
2018-05-16T06:30:37.223Z,16.06
2018-05-16T06:33:04.754Z,16.08
2018-05-16T06:35:32.262Z,16.21
2018-05-16T06:37:59.765Z,16.40
2018-05-16T06:40:27.273Z,16.51
2018-05-16T06:42:54.771Z,16.63
2018-05-16T06:45:22.314Z,16.74
2018-05-16T06:47:49.832Z,16.87
2018-05-16T06:50:17.324Z,17.05
2018-05-16T06:52:44.836Z,17.20
2018-05-16T06:55:12.367Z,17.24
2018-05-16T06:57:39.866Z,17.42
2018-05-16T07:00:07.373Z,17.71
2018-05-16T07:02:34.887Z,17.94
2018-05-16T07:05:02.389Z,18.10
2018-05-16T07:07:29.948Z,18.24
2018-05-16T07:09:57.468Z,18.37
2018-05-16T07:12:24.971Z,18.30
2018-05-16T07:14:52.484Z,18.43
2018-05-16T07:17:19.987Z,18.63
2018-05-16T07:19:47.496Z,18.61
2018-05-16T07:22:14.991Z,18.55
2018-05-16T07:24:42.520Z,18.49
2018-05-16T07:27:14.849Z,18.53
2018-05-16T07:29:42.359Z,18.63
2018-05-16T07:32:09.864Z,18.83
2018-05-16T07:34:37.369Z,18.72
2018-05-16T07:37:04.875Z,18.82
2018-05-16T07:39:32.431Z,18.73
2018-05-16T07:41:59.932Z,18.84
2018-05-16T07:44:28.643Z,18.84
2018-05-16T07:46:56.195Z,19.05
2018-05-16T07:49:23.683Z,19.12
2018-05-16T07:51:51.236Z,19.08
2018-05-16T07:54:18.739Z,19.13
2018-05-16T07:56:46.278Z,19.31
2018-05-16T07:59:13.779Z,19.24
2018-05-16T08:01:41.295Z,19.44
2018-05-16T08:04:08.789Z,19.34
2018-05-16T08:06:36.299Z,19.13
2018-05-16T08:09:03.841Z,19.19
2018-05-16T08:11:31.336Z,19.08
2018-05-16T08:13:58.849Z,19.35
2018-05-16T08:16:26.353Z,19.52
2018-05-16T08:18:53.860Z,19.67
2018-05-16T08:21:21.351Z,19.97
2018-05-16T08:23:48.846Z,20.11
2018-05-16T08:26:16.351Z,20.13
2018-05-16T08:28:43.962Z,20.32
2018-05-16T08:31:11.499Z,20.52
2018-05-16T08:33:39.007Z,20.78
2018-05-16T08:36:06.507Z,21.08
2018-05-16T08:38:34.045Z,20.89
2018-05-16T08:41:01.555Z,20.86
2018-05-16T08:43:29.057Z,20.82
2018-05-16T08:45:56.587Z,20.84
2018-05-16T08:48:24.079Z,20.88
2018-05-16T08:50:51.566Z,20.65
2018-05-16T08:53:19.063Z,20.80
2018-05-16T08:55:46.571Z,21.05
2018-05-16T08:58:14.079Z,21.37
2018-05-16T09:00:41.584Z,21.51
2018-05-16T09:03:09.096Z,21.69
2018-05-16T09:05:36.609Z,21.64
2018-05-16T09:08:04.138Z,21.85
2018-05-16T09:10:31.652Z,21.95
2018-05-16T09:12:59.168Z,22.00
2018-05-16T09:15:26.665Z,21.87
2018-05-16T09:17:54.366Z,21.67
2018-05-16T09:20:21.912Z,21.66
2018-05-16T09:22:49.417Z,21.86
2018-05-16T09:25:16.996Z,22.08
2018-05-16T09:27:44.456Z,22.13
2018-05-16T09:30:11.952Z,22.20
2018-05-16T09:32:39.452Z,22.25
2018-05-16T09:35:06.985Z,22.32
2018-05-16T09:37:34.487Z,21.98
2018-05-16T09:40:01.983Z,21.55
2018-05-16T09:42:29.478Z,21.49
2018-05-16T09:44:56.994Z,21.65
2018-05-16T09:47:24.490Z,21.77
2018-05-16T09:49:51.986Z,21.69
2018-05-16T09:52:19.481Z,21.59
2018-05-16T09:54:46.971Z,21.90
2018-05-16T09:57:14.469Z,21.90
2018-05-16T09:59:41.984Z,21.56
2018-05-16T10:02:09.472Z,21.42
2018-05-16T10:04:36.964Z,21.54
2018-05-16T10:07:04.481Z,21.62
2018-05-16T10:09:32.025Z,21.72
2018-05-16T10:11:59.585Z,21.88
2018-05-16T10:14:27.113Z,22.06
2018-05-16T10:16:54.658Z,22.15
2018-05-16T10:19:22.170Z,22.33
2018-05-16T10:21:49.679Z,22.27
2018-05-16T10:24:17.257Z,22.32
2018-05-16T10:26:44.796Z,22.30
2018-05-16T10:29:12.302Z,22.29
2018-05-16T10:31:39.880Z,22.30
2018-05-16T10:34:07.378Z,22.15
2018-05-16T10:36:34.936Z,22.07
2018-05-16T10:39:02.451Z,22.03
2018-05-16T10:41:30.013Z,22.04
2018-05-16T10:43:57.538Z,22.27
2018-05-16T10:46:25.091Z,22.60
2018-05-16T10:48:52.641Z,23.09
2018-05-16T10:51:20.189Z,23.46
2018-05-16T10:53:47.686Z,23.70
2018-05-16T10:56:15.282Z,23.19
2018-05-16T10:58:42.828Z,23.70
2018-05-16T11:01:10.319Z,23.88
2018-05-16T11:03:37.820Z,24.20
2018-05-16T11:06:05.319Z,24.22
2018-05-16T11:08:32.820Z,24.04
2018-05-16T11:11:00.366Z,24.28
2018-05-16T11:13:27.919Z,23.99
2018-05-16T11:15:55.402Z,23.76
2018-05-16T11:18:22.929Z,24.02
2018-05-16T11:20:50.437Z,24.39
2018-05-16T11:23:17.939Z,23.89
2018-05-16T11:25:45.484Z,24.30
2018-05-16T11:28:12.991Z,24.32
2018-05-16T11:30:40.486Z,24.68
2018-05-16T11:33:07.982Z,24.51
2018-05-16T11:35:35.527Z,24.52
2018-05-16T11:38:03.023Z,24.56
2018-05-16T11:40:30.576Z,24.44
2018-05-16T11:42:58.078Z,24.64
2018-05-16T11:45:25.568Z,24.52
2018-05-16T11:47:53.059Z,25.10
2018-05-16T11:50:20.579Z,25.53
2018-05-16T11:52:48.089Z,25.40
2018-05-16T11:55:15.603Z,25.02
2018-05-16T11:57:43.097Z,24.76
2018-05-16T12:00:10.721Z,24.32
2018-05-16T12:02:38.213Z,24.29
2018-05-16T12:05:05.724Z,24.33
2018-05-16T12:07:33.236Z,24.51
2018-05-16T12:10:00.740Z,24.73
2018-05-16T12:12:28.233Z,24.44
2018-05-16T12:14:55.788Z,24.73
2018-05-16T12:17:23.294Z,25.53
2018-05-16T12:19:50.810Z,25.80
2018-05-16T12:22:18.330Z,25.85
2018-05-16T12:24:45.860Z,25.68
2018-05-16T12:27:13.356Z,26.16
2018-05-16T12:29:40.865Z,25.56
2018-05-16T12:32:08.375Z,24.83
2018-05-16T12:34:35.867Z,24.40
2018-05-16T12:37:03.404Z,24.80
2018-05-16T12:39:30.923Z,25.33
2018-05-16T12:45:29.304Z,24.95
2018-05-16T12:47:56.853Z,24.29
2018-05-16T12:50:24.405Z,24.62
2018-05-16T12:52:51.913Z,25.35
2018-05-16T12:55:19.479Z,26.07
2018-05-16T12:57:47.001Z,26.20
2018-05-16T13:00:14.545Z,27.04
2018-05-16T13:02:42.053Z,26.64
2018-05-16T13:05:09.586Z,26.04
2018-05-16T13:07:37.091Z,25.77
2018-05-16T13:10:04.598Z,25.93
2018-05-16T13:12:32.126Z,25.78
2018-05-16T13:14:59.620Z,26.52
2018-05-16T13:17:27.127Z,26.58
2018-05-16T13:22:28.483Z,27.00
2018-05-16T13:24:56.039Z,26.92
2018-05-16T13:27:23.554Z,26.99
2018-05-16T13:29:51.051Z,26.33
2018-05-16T13:32:18.559Z,26.78
2018-05-16T13:34:46.076Z,26.96
2018-05-16T13:37:13.573Z,26.70
2018-05-16T13:39:41.073Z,26.06
2018-05-16T13:42:08.567Z,26.25
2018-05-16T13:44:36.079Z,26.10
2018-05-16T13:47:03.600Z,26.60
2018-05-16T13:49:31.139Z,26.83
2018-05-16T13:51:58.637Z,26.79
2018-05-16T13:54:26.144Z,27.04
2018-05-16T13:56:53.643Z,26.23
2018-05-16T13:59:21.152Z,26.60
2018-05-16T14:01:48.649Z,26.58
2018-05-16T14:04:16.163Z,26.83
2018-05-16T14:06:43.658Z,26.76
2018-05-16T14:09:11.165Z,26.53
2018-05-16T14:11:38.720Z,26.60
2018-05-16T14:14:06.230Z,26.05
2018-05-16T14:16:33.839Z,26.45
2018-05-16T14:19:01.342Z,26.69
2018-05-16T14:21:28.859Z,27.48
2018-05-16T14:23:56.373Z,28.04
2018-05-16T14:26:23.887Z,28.00
2018-05-16T14:28:51.419Z,27.89
2018-05-16T14:31:18.911Z,27.33
2018-05-16T14:33:46.424Z,27.79
2018-05-16T14:36:14.062Z,27.88
2018-05-16T14:38:41.501Z,27.48
2018-05-16T14:41:09.016Z,27.47
2018-05-16T14:43:36.541Z,27.72
2018-05-16T14:46:04.089Z,27.62
2018-05-16T14:48:31.683Z,27.87
2018-05-16T14:50:59.154Z,28.19
2018-05-16T14:53:26.670Z,27.57
2018-05-16T14:55:54.172Z,27.64
2018-05-16T14:58:21.682Z,27.60
2018-05-16T15:00:49.186Z,27.50
2018-05-16T15:03:17.459Z,27.69
2018-05-16T15:05:44.970Z,27.23
2018-05-16T15:08:12.471Z,27.18
2018-05-16T15:10:39.974Z,26.61
2018-05-16T15:13:07.503Z,26.71
2018-05-16T15:15:35.020Z,26.78
2018-05-16T15:18:02.517Z,26.39
2018-05-16T15:20:30.060Z,26.56
2018-05-16T15:22:57.546Z,27.10
2018-05-16T15:25:26.009Z,26.99
2018-05-16T15:27:53.517Z,27.27
2018-05-16T15:30:21.023Z,27.99
2018-05-16T15:32:48.521Z,28.21
2018-05-16T15:35:16.015Z,27.67
2018-05-16T15:37:43.520Z,27.60
2018-05-16T15:40:11.033Z,26.79
2018-05-16T15:42:38.533Z,26.06
2018-05-16T15:45:06.039Z,25.53
2018-05-16T15:47:33.589Z,25.30
2018-05-16T15:50:01.092Z,25.49
2018-05-16T15:52:28.588Z,25.75
2018-05-16T15:54:56.091Z,25.54
2018-05-16T15:57:23.603Z,25.41
2018-05-16T15:59:51.097Z,25.50
2018-05-16T16:02:18.597Z,25.46
2018-05-16T16:04:46.111Z,25.67
2018-05-16T16:07:13.612Z,25.96
2018-05-16T16:09:41.126Z,26.17
2018-05-16T16:12:08.633Z,26.65
2018-05-16T16:14:36.163Z,26.79
2018-05-16T16:17:03.675Z,25.96
2018-05-16T16:19:31.186Z,26.61
2018-05-16T16:21:58.744Z,26.68
2018-05-16T16:24:26.242Z,26.69
2018-05-16T16:26:53.761Z,26.61
2018-05-16T16:29:21.280Z,26.56
2018-05-16T16:31:48.821Z,26.42
2018-05-16T16:34:16.369Z,26.26
2018-05-16T16:36:43.884Z,26.36
2018-05-16T16:39:11.425Z,26.48
2018-05-16T16:41:38.896Z,26.74
2018-05-16T16:44:06.387Z,27.04
2018-05-16T16:46:34.848Z,27.09
2018-05-16T16:49:02.355Z,27.11
2018-05-16T16:51:29.864Z,27.13
2018-05-16T16:53:57.358Z,27.51
2018-05-16T16:56:24.876Z,27.69
2018-05-16T16:58:52.394Z,27.97
2018-05-16T17:01:19.926Z,27.93
2018-05-16T17:03:47.455Z,27.63
2018-05-16T17:06:14.952Z,27.49
2018-05-16T17:08:45.198Z,27.61
2018-05-16T17:11:12.721Z,27.19
2018-05-16T17:13:40.262Z,26.80
2018-05-16T17:16:07.767Z,26.49
2018-05-16T17:18:35.276Z,25.62
2018-05-16T17:21:02.785Z,25.30
2018-05-16T17:23:30.306Z,24.81
2018-05-16T17:25:57.808Z,24.77
2018-05-16T17:28:25.317Z,24.53
2018-05-16T17:30:53.599Z,24.25
2018-05-16T17:33:21.103Z,23.93
2018-05-16T17:35:48.606Z,23.54
2018-05-16T17:38:16.132Z,23.11
2018-05-16T17:40:43.675Z,22.92
2018-05-16T17:43:11.175Z,22.68
2018-05-16T17:45:38.682Z,22.50
2018-05-16T17:48:06.202Z,22.35
2018-05-16T17:50:33.733Z,22.24
2018-05-16T17:53:01.234Z,21.94
2018-05-16T17:55:28.735Z,21.95
2018-05-16T17:57:56.228Z,21.86
2018-05-16T18:00:23.772Z,21.90
2018-05-16T18:02:51.272Z,21.89
2018-05-16T18:05:18.823Z,21.71
2018-05-16T18:07:46.343Z,21.63
2018-05-16T18:10:13.874Z,21.51
2018-05-16T18:12:41.433Z,21.36
2018-05-16T18:15:20.846Z,21.44
2018-05-16T18:17:48.357Z,21.58
2018-05-16T18:20:15.869Z,21.71
2018-05-16T18:22:43.386Z,21.67
2018-05-16T18:25:10.925Z,21.67
2018-05-16T18:27:38.520Z,21.61
2018-05-16T18:30:06.073Z,21.59
2018-05-16T18:32:33.772Z,21.59
2018-05-16T18:35:01.287Z,21.46
2018-05-16T18:37:28.812Z,21.44
2018-05-16T18:39:56.314Z,21.25
2018-05-16T18:42:23.913Z,21.07
2018-05-16T18:44:51.371Z,21.09
2018-05-16T18:47:18.896Z,20.78
2018-05-16T18:49:46.403Z,20.68
2018-05-16T18:52:13.895Z,20.70
2018-05-16T18:54:41.388Z,20.69
2018-05-16T18:57:08.948Z,20.59
2018-05-16T18:59:36.446Z,20.40
2018-05-16T19:02:03.965Z,20.36
2018-05-16T19:04:31.471Z,20.33
2018-05-16T19:06:59.276Z,20.25
2018-05-16T19:09:26.778Z,20.32
2018-05-16T19:11:54.282Z,20.25
2018-05-16T19:14:21.831Z,20.23
2018-05-16T19:16:49.449Z,20.04
2018-05-16T19:19:18.014Z,19.93
2018-05-16T19:21:45.538Z,19.86
2018-05-16T19:24:13.055Z,19.75
2018-05-16T19:26:40.568Z,19.77
2018-05-16T19:29:08.069Z,19.72
2018-05-16T19:31:35.559Z,19.55
2018-05-16T19:34:03.062Z,19.45
2018-05-16T19:36:30.585Z,19.49
2018-05-16T19:38:58.091Z,19.31
2018-05-16T19:41:25.739Z,19.07
2018-05-16T19:43:53.269Z,19.02
2018-05-16T19:46:20.854Z,18.82
2018-05-16T19:48:48.327Z,18.73
2018-05-16T19:51:15.833Z,18.76
2018-05-16T19:53:43.360Z,18.72
2018-05-16T19:56:10.947Z,18.80
2018-05-16T19:58:38.556Z,18.66
2018-05-16T20:01:06.027Z,18.66
2018-05-16T20:03:33.518Z,18.65
2018-05-16T20:06:01.918Z,18.46
2018-05-16T20:08:29.424Z,18.40
2018-05-16T20:10:56.948Z,18.41
2018-05-16T20:13:24.490Z,18.38
2018-05-16T20:15:51.997Z,18.37
2018-05-16T20:18:19.491Z,18.31
2018-05-16T20:20:46.999Z,18.24
2018-05-16T20:23:14.503Z,18.17
2018-05-16T20:25:42.076Z,18.24
2018-05-16T20:28:09.566Z,18.18
2018-05-16T20:30:37.077Z,18.06
2018-05-16T20:33:04.583Z,18.12
2018-05-16T20:35:32.103Z,18.08
2018-05-16T20:37:59.607Z,18.06
2018-05-16T20:40:27.112Z,18.07
2018-05-16T20:42:54.748Z,18.00
2018-05-16T20:45:22.345Z,18.11
2018-05-16T20:47:49.804Z,18.09
2018-05-16T20:50:17.348Z,18.05
2018-05-16T20:52:44.858Z,18.06
2018-05-16T20:55:12.416Z,18.03
2018-05-16T20:57:39.931Z,18.04
2018-05-16T21:00:07.519Z,18.05
2018-05-16T21:02:35.013Z,18.08
2018-05-16T21:05:02.559Z,18.10
2018-05-16T21:07:30.402Z,18.14
2018-05-16T21:09:58.266Z,18.19
2018-05-16T21:12:25.758Z,18.28
2018-05-16T21:14:54.264Z,18.25
2018-05-16T21:17:21.759Z,18.21
2018-05-16T21:19:49.256Z,18.19
2018-05-16T21:22:16.757Z,18.05
2018-05-16T21:24:44.255Z,18.01
2018-05-16T21:29:49.059Z,18.03
2018-05-16T21:32:16.571Z,18.05
2018-05-16T21:34:44.122Z,18.03
2018-05-16T21:37:11.663Z,18.03
2018-05-16T21:39:39.159Z,17.97
2018-05-16T21:42:06.659Z,18.00
2018-05-16T21:44:34.188Z,17.91
2018-05-16T21:47:01.703Z,17.96
2018-05-16T21:49:29.220Z,17.95
2018-05-16T21:51:56.811Z,17.93
2018-05-16T21:54:24.310Z,17.90
2018-05-16T21:56:51.817Z,17.87
2018-05-16T21:59:19.356Z,17.90
2018-05-16T22:01:46.900Z,17.80
2018-05-16T22:04:14.407Z,17.74
2018-05-16T22:06:41.908Z,17.56
2018-05-16T22:09:09.467Z,17.50
2018-05-16T22:11:36.970Z,17.45
2018-05-16T22:14:04.462Z,17.46
2018-05-16T22:16:31.962Z,17.42
2018-05-16T22:18:59.481Z,17.38
2018-05-16T22:21:26.980Z,17.29
2018-05-16T22:23:54.532Z,17.29
2018-05-16T22:26:22.996Z,17.22
2018-05-16T22:28:50.550Z,17.06
2018-05-16T22:31:23.689Z,16.95
2018-05-16T22:33:56.676Z,17.02
2018-05-16T22:36:29.849Z,16.88
2018-05-16T22:39:03.815Z,16.90
2018-05-16T22:41:36.882Z,16.96
2018-05-16T22:44:06.209Z,17.03
2018-05-16T22:46:33.762Z,17.04
2018-05-16T22:49:01.251Z,16.96
2018-05-16T22:51:28.783Z,16.84
2018-05-16T22:53:56.285Z,16.78
2018-05-16T22:56:23.780Z,16.83
2018-05-16T22:58:51.279Z,16.79
2018-05-16T23:01:18.767Z,16.81
2018-05-16T23:03:46.271Z,16.74
2018-05-16T23:06:13.763Z,16.69
2018-05-16T23:08:41.359Z,16.58
2018-05-16T23:11:08.842Z,16.64
2018-05-16T23:13:36.334Z,16.61
2018-05-16T23:16:03.950Z,16.63
2018-05-16T23:18:31.458Z,16.63
2018-05-16T23:20:58.952Z,16.68
2018-05-16T23:23:26.454Z,16.73
2018-05-16T23:25:53.984Z,16.76
2018-05-16T23:28:21.492Z,16.79
2018-05-16T23:30:49.067Z,16.64
2018-05-16T23:33:16.511Z,16.58
2018-05-16T23:35:44.375Z,16.39
2018-05-16T23:38:11.859Z,16.24
2018-05-16T23:40:39.388Z,16.02
2018-05-16T23:43:06.881Z,15.91
2018-05-16T23:45:34.436Z,15.77
2018-05-16T23:48:01.986Z,15.80
2018-05-16T23:50:29.497Z,15.89
2018-05-16T23:52:57.014Z,15.89
2018-05-16T23:55:24.510Z,15.86
2018-05-16T23:57:52.027Z,15.91
